Dobbins Air Reserve Base Airport
KMGE : now visible

Airfield :











YOU CAN JOIN US ON...

 
LOGIN :

Register | Disclaimer

   EN    FR    IT 

 









Legend :    VFR   Marginal VFR   IFR   Intensive IFR   Very Intensive IFR
Visi :
Ceiling :
>= 8 km
>= 3000ft
5 to 8 km
1000 to 3000 ft
1500m to 5 km
500 to 1000 ft
800 to 1500m
200 to 500 ft
< 800m
< 200 ft
Symbols :   Thunderstorms  Fog  Heavy snow  Heavy precipitations  Wind > 20 kt







- Airport Elevation : 1068 ft


KMGE - Dobbins Air Reserve Base

CURRENT METAR :
  • 230856Z AUTO 00000KT 10SM FEW042 SCT055 SCT075 25/21 A3003 RMK AO2 SLP158 T02520208 55003 $

EXPIRED METARs :
  • 230756Z AUTO 00000KT 10SM FEW043 SCT080 SCT170 25/20 A3003 RMK AO2 SLP158 T02540204 $
  • 230656Z AUTO 21004KT 10SM BKN160 26/20 A3003 RMK AO2 SLP158 T02590202 $

TAF TAF KMGE
Valid from the 23 at 05:00 until the 24 at 11:00 UTC


230500Z 2305/2411 22006KT 9999 VCTS SCT050CB BKN250 QNH3004INS
TEMPO 2305/2307 VRB10G18KT 9000 -TSRA BKN040CB BKN250
BECMG 2308/2309 23006KT 9999 NSW FEW050 SCT250 QNH3002INS
TEMPO 2318/2324 VRB10G18KT 9000 -TSRA BKN030CB BKN250
BECMG 2402/2403 VRB06KT 9999 FEW050 SCT250 QNH3000INS TX31/2322Z TN23/2311Z
No reported NOTAMs for that airfield.



MET'MAP, your aeronautical weather chart ! - Copyright ORBIFLY December 2007 - Disclaimer

ORBIFLY MET'MAP TEAM :

Programming & Development : Alexandra Zaïnal
Concept & Development : Baudouin d'Aumeries
Co-Development & Prog : Marc-Olivier Méhu
Technical & hardware support : Manuel Goepfert

Contact : metmap@orbifly.com




SOURCES & CREDITS :

   NOAA       Earth
Advisory